sensor_id;sensor_type;location;lat;lon;timestamp;P1;durP1;ratioP1;P2;durP2;ratioP2
48667;SDS011;34453;52.198;5.004;2024-02-16T00:00:51;4.95;;;1.90;;
48667;SDS011;34453;52.198;5.004;2024-02-16T00:03:19;3.35;;;2.08;;
48667;SDS011;34453;52.198;5.004;2024-02-16T00:05:45;2.42;;;2.22;;
48667;SDS011;34453;52.198;5.004;2024-02-16T00:08:11;3.42;;;2.00;;
48667;SDS011;34453;52.198;5.004;2024-02-16T00:10:40;2.35;;;2.05;;
48667;SDS011;34453;52.198;5.004;2024-02-16T00:13:06;3.83;;;2.13;;
48667;SDS011;34453;52.198;5.004;2024-02-16T00:15:31;2.25;;;2.13;;
48667;SDS011;34453;52.198;5.004;2024-02-16T00:17:56;4.80;;;2.47;;
48667;SDS011;34453;52.198;5.004;2024-02-16T00:20:21;3.70;;;2.45;;
48667;SDS011;34453;52.198;5.004;2024-02-16T00:22:49;3.03;;;2.42;;
48667;SDS011;34453;52.198;5.004;2024-02-16T00:25:14;2.80;;;2.25;;
48667;SDS011;34453;52.198;5.004;2024-02-16T00:27:40;7.68;;;2.30;;
48667;SDS011;34453;52.198;5.004;2024-02-16T00:30:06;2.67;;;2.13;;
48667;SDS011;34453;52.198;5.004;2024-02-16T00:32:31;3.15;;;2.00;;
48667;SDS011;34453;52.198;5.004;2024-02-16T00:34:57;3.28;;;2.17;;
48667;SDS011;34453;52.198;5.004;2024-02-16T00:37:22;3.65;;;2.05;;
48667;SDS011;34453;52.198;5.004;2024-02-16T00:39:47;2.45;;;2.25;;
48667;SDS011;34453;52.198;5.004;2024-02-16T00:42:13;6.72;;;3.80;;
48667;SDS011;34453;52.198;5.004;2024-02-16T00:44:38;3.55;;;1.83;;
48667;SDS011;34453;52.198;5.004;2024-02-16T00:47:04;2.17;;;2.00;;
48667;SDS011;34453;52.198;5.004;2024-02-16T00:49:31;2.67;;;1.75;;
48667;SDS011;34453;52.198;5.004;2024-02-16T00:51:56;2.53;;;1.98;;
48667;SDS011;34453;52.198;5.004;2024-02-16T00:54:22;2.42;;;2.22;;
48667;SDS011;34453;52.198;5.004;2024-02-16T00:56:47;3.50;;;2.22;;
48667;SDS011;34453;52.198;5.004;2024-02-16T00:59:12;4.15;;;2.10;;
48667;SDS011;34453;52.198;5.004;2024-02-16T01:01:37;2.50;;;2.30;;
48667;SDS011;34453;52.198;5.004;2024-02-16T01:04:03;2.03;;;1.92;;
48667;SDS011;34453;52.198;5.004;2024-02-16T01:06:32;5.95;;;2.42;;
48667;SDS011;34453;52.198;5.004;2024-02-16T01:08:57;2.35;;;1.98;;
48667;SDS011;34453;52.198;5.004;2024-02-16T01:11:22;3.05;;;2.15;;
48667;SDS011;34453;52.198;5.004;2024-02-16T01:13:48;2.35;;;2.15;;
48667;SDS011;34453;52.198;5.004;2024-02-16T01:16:13;4.05;;;2.20;;
48667;SDS011;34453;52.198;5.004;2024-02-16T01:18:39;7.50;;;3.65;;
48667;SDS011;34453;52.198;5.004;2024-02-16T01:21:05;5.45;;;2.25;;
48667;SDS011;34453;52.198;5.004;2024-02-16T01:23:30;2.28;;;2.00;;
48667;SDS011;34453;52.198;5.004;2024-02-16T01:25:56;7.78;;;2.70;;
48667;SDS011;34453;52.198;5.004;2024-02-16T01:28:21;5.70;;;2.40;;
48667;SDS011;34453;52.198;5.004;2024-02-16T01:30:48;3.92;;;2.05;;
48667;SDS011;34453;52.198;5.004;2024-02-16T01:33:13;2.25;;;2.08;;
48667;SDS011;34453;52.198;5.004;2024-02-16T01:35:39;2.72;;;1.90;;
48667;SDS011;34453;52.198;5.004;2024-02-16T01:38:04;5.72;;;1.83;;
48667;SDS011;34453;52.198;5.004;2024-02-16T01:40:30;3.10;;;2.28;;
48667;SDS011;34453;52.198;5.004;2024-02-16T01:42:56;5.07;;;2.13;;
48667;SDS011;34453;52.198;5.004;2024-02-16T01:45:22;6.32;;;2.13;;
48667;SDS011;34453;52.198;5.004;2024-02-16T01:47:48;2.40;;;2.00;;
48667;SDS011;34453;52.198;5.004;2024-02-16T01:50:14;2.15;;;1.75;;
48667;SDS011;34453;52.198;5.004;2024-02-16T01:52:40;2.28;;;2.17;;
48667;SDS011;34453;52.198;5.004;2024-02-16T01:55:05;2.25;;;2.05;;
48667;SDS011;34453;52.198;5.004;2024-02-16T01:57:35;3.08;;;2.10;;
48667;SDS011;34453;52.198;5.004;2024-02-16T02:00:00;1.70;;;1.55;;
48667;SDS011;34453;52.198;5.004;2024-02-16T02:02:26;2.60;;;1.92;;
48667;SDS011;34453;52.198;5.004;2024-02-16T02:04:53;5.88;;;1.77;;
48667;SDS011;34453;52.198;5.004;2024-02-16T02:07:18;2.20;;;2.00;;
48667;SDS011;34453;52.198;5.004;2024-02-16T02:09:43;4.30;;;2.28;;
48667;SDS011;34453;52.198;5.004;2024-02-16T02:12:09;2.40;;;2.05;;
48667;SDS011;34453;52.198;5.004;2024-02-16T02:14:34;4.93;;;2.40;;
48667;SDS011;34453;52.198;5.004;2024-02-16T02:17:00;3.95;;;1.92;;
48667;SDS011;34453;52.198;5.004;2024-02-16T02:19:26;4.63;;;1.98;;
48667;SDS011;34453;52.198;5.004;2024-02-16T02:21:51;2.20;;;1.95;;
48667;SDS011;34453;52.198;5.004;2024-02-16T02:24:17;3.25;;;2.22;;
48667;SDS011;34453;52.198;5.004;2024-02-16T02:26:42;2.08;;;1.88;;
48667;SDS011;34453;52.198;5.004;2024-02-16T02:29:08;10.45;;;2.70;;
48667;SDS011;34453;52.198;5.004;2024-02-16T02:31:33;4.78;;;2.40;;
48667;SDS011;34453;52.198;5.004;2024-02-16T02:33:59;3.30;;;2.17;;
48667;SDS011;34453;52.198;5.004;2024-02-16T02:36:25;2.55;;;2.22;;
48667;SDS011;34453;52.198;5.004;2024-02-16T02:38:50;3.92;;;2.28;;
48667;SDS011;34453;52.198;5.004;2024-02-16T02:41:16;2.40;;;2.20;;
48667;SDS011;34453;52.198;5.004;2024-02-16T02:43:42;4.28;;;2.28;;
48667;SDS011;34453;52.198;5.004;2024-02-16T02:46:07;2.28;;;2.08;;
48667;SDS011;34453;52.198;5.004;2024-02-16T02:48:33;8.85;;;2.60;;
48667;SDS011;34453;52.198;5.004;2024-02-16T02:50:58;5.10;;;2.97;;
48667;SDS011;34453;52.198;5.004;2024-02-16T02:53:27;3.20;;;1.90;;
48667;SDS011;34453;52.198;5.004;2024-02-16T02:55:53;7.28;;;2.13;;
48667;SDS011;34453;52.198;5.004;2024-02-16T02:58:18;3.92;;;2.50;;
48667;SDS011;34453;52.198;5.004;2024-02-16T03:00:43;4.07;;;2.10;;
48667;SDS011;34453;52.198;5.004;2024-02-16T03:03:09;4.13;;;2.20;;
48667;SDS011;34453;52.198;5.004;2024-02-16T03:05:36;6.28;;;2.58;;
48667;SDS011;34453;52.198;5.004;2024-02-16T03:08:03;8.38;;;2.50;;
48667;SDS011;34453;52.198;5.004;2024-02-16T03:10:28;2.97;;;2.47;;
48667;SDS011;34453;52.198;5.004;2024-02-16T03:12:59;2.17;;;1.95;;
48667;SDS011;34453;52.198;5.004;2024-02-16T03:15:26;4.22;;;2.13;;
48667;SDS011;34453;52.198;5.004;2024-02-16T03:17:51;2.15;;;1.95;;
48667;SDS011;34453;52.198;5.004;2024-02-16T03:20:17;6.20;;;2.10;;
48667;SDS011;34453;52.198;5.004;2024-02-16T03:22:42;3.85;;;2.25;;
48667;SDS011;34453;52.198;5.004;2024-02-16T03:25:08;4.78;;;1.98;;
48667;SDS011;34453;52.198;5.004;2024-02-16T03:27:34;3.40;;;1.73;;
48667;SDS011;34453;52.198;5.004;2024-02-16T03:30:00;3.75;;;2.38;;
48667;SDS011;34453;52.198;5.004;2024-02-16T03:32:25;6.07;;;2.63;;
48667;SDS011;34453;52.198;5.004;2024-02-16T03:34:51;2.22;;;2.08;;
48667;SDS011;34453;52.198;5.004;2024-02-16T03:37:16;2.78;;;2.58;;
48667;SDS011;34453;52.198;5.004;2024-02-16T03:39:42;5.03;;;1.92;;
48667;SDS011;34453;52.198;5.004;2024-02-16T03:42:08;4.22;;;1.98;;
48667;SDS011;34453;52.198;5.004;2024-02-16T03:44:34;2.83;;;2.17;;
48667;SDS011;34453;52.198;5.004;2024-02-16T03:47:01;3.15;;;2.65;;
48667;SDS011;34453;52.198;5.004;2024-02-16T03:49:26;4.95;;;2.70;;
48667;SDS011;34453;52.198;5.004;2024-02-16T03:51:54;3.15;;;2.10;;
48667;SDS011;34453;52.198;5.004;2024-02-16T03:54:20;2.72;;;2.03;;
48667;SDS011;34453;52.198;5.004;2024-02-16T03:56:45;5.95;;;2.40;;
48667;SDS011;34453;52.198;5.004;2024-02-16T03:59:10;6.50;;;2.20;;
48667;SDS011;34453;52.198;5.004;2024-02-16T04:01:36;3.10;;;2.33;;
48667;SDS011;34453;52.198;5.004;2024-02-16T04:04:01;5.78;;;2.55;;
48667;SDS011;34453;52.198;5.004;2024-02-16T04:06:28;6.47;;;2.15;;
48667;SDS011;34453;52.198;5.004;2024-02-16T04:08:54;7.10;;;2.22;;
48667;SDS011;34453;52.198;5.004;2024-02-16T04:11:19;2.97;;;2.78;;
48667;SDS011;34453;52.198;5.004;2024-02-16T04:13:44;2.67;;;2.38;;
48667;SDS011;34453;52.198;5.004;2024-02-16T04:16:10;2.67;;;2.45;;
48667;SDS011;34453;52.198;5.004;2024-02-16T04:18:35;3.47;;;2.55;;
48667;SDS011;34453;52.198;5.004;2024-02-16T04:21:00;5.25;;;2.88;;
48667;SDS011;34453;52.198;5.004;2024-02-16T04:23:26;2.25;;;2.13;;
48667;SDS011;34453;52.198;5.004;2024-02-16T04:25:51;2.35;;;2.25;;
48667;SDS011;34453;52.198;5.004;2024-02-16T04:28:17;2.28;;;2.10;;
48667;SDS011;34453;52.198;5.004;2024-02-16T04:30:43;2.55;;;2.35;;
48667;SDS011;34453;52.198;5.004;2024-02-16T04:33:09;3.28;;;2.92;;
48667;SDS011;34453;52.198;5.004;2024-02-16T04:35:34;7.10;;;2.33;;
48667;SDS011;34453;52.198;5.004;2024-02-16T04:37:59;2.17;;;2.03;;
48667;SDS011;34453;52.198;5.004;2024-02-16T04:40:25;3.30;;;2.50;;
48667;SDS011;34453;52.198;5.004;2024-02-16T04:42:50;2.92;;;2.60;;
48667;SDS011;34453;52.198;5.004;2024-02-16T04:45:15;3.20;;;2.53;;
48667;SDS011;34453;52.198;5.004;2024-02-16T04:47:41;9.82;;;2.30;;
48667;SDS011;34453;52.198;5.004;2024-02-16T04:50:06;2.65;;;2.00;;
48667;SDS011;34453;52.198;5.004;2024-02-16T04:52:35;2.50;;;2.40;;
48667;SDS011;34453;52.198;5.004;2024-02-16T04:55:01;3.70;;;2.60;;
48667;SDS011;34453;52.198;5.004;2024-02-16T04:57:27;5.28;;;2.85;;
48667;SDS011;34453;52.198;5.004;2024-02-16T04:59:52;5.32;;;2.35;;
48667;SDS011;34453;52.198;5.004;2024-02-16T05:02:17;3.95;;;2.03;;
48667;SDS011;34453;52.198;5.004;2024-02-16T05:04:43;3.85;;;2.38;;
48667;SDS011;34453;52.198;5.004;2024-02-16T05:07:08;4.88;;;2.30;;
48667;SDS011;34453;52.198;5.004;2024-02-16T05:09:34;3.63;;;2.20;;
48667;SDS011;34453;52.198;5.004;2024-02-16T05:11:59;3.45;;;2.35;;
48667;SDS011;34453;52.198;5.004;2024-02-16T05:14:25;7.38;;;3.35;;
48667;SDS011;34453;52.198;5.004;2024-02-16T05:16:50;5.07;;;2.58;;
48667;SDS011;34453;52.198;5.004;2024-02-16T05:19:16;2.28;;;2.17;;
48667;SDS011;34453;52.198;5.004;2024-02-16T05:21:41;2.13;;;2.00;;
48667;SDS011;34453;52.198;5.004;2024-02-16T05:24:06;2.40;;;2.20;;
48667;SDS011;34453;52.198;5.004;2024-02-16T05:26:32;4.50;;;2.60;;
48667;SDS011;34453;52.198;5.004;2024-02-16T05:28:57;4.20;;;2.70;;
48667;SDS011;34453;52.198;5.004;2024-02-16T05:31:22;5.18;;;2.63;;
48667;SDS011;34453;52.198;5.004;2024-02-16T05:33:48;4.28;;;2.17;;
48667;SDS011;34453;52.198;5.004;2024-02-16T05:36:20;3.28;;;2.50;;
48667;SDS011;34453;52.198;5.004;2024-02-16T05:38:49;4.53;;;2.03;;
48667;SDS011;34453;52.198;5.004;2024-02-16T05:41:17;4.90;;;2.35;;
48667;SDS011;34453;52.198;5.004;2024-02-16T05:43:43;3.45;;;2.30;;
48667;SDS011;34453;52.198;5.004;2024-02-16T05:46:13;2.58;;;2.33;;
48667;SDS011;34453;52.198;5.004;2024-02-16T05:48:38;2.67;;;2.47;;
48667;SDS011;34453;52.198;5.004;2024-02-16T05:51:05;7.57;;;3.90;;
48667;SDS011;34453;52.198;5.004;2024-02-16T05:53:31;2.50;;;2.38;;
48667;SDS011;34453;52.198;5.004;2024-02-16T05:55:56;2.50;;;2.30;;
48667;SDS011;34453;52.198;5.004;2024-02-16T05:58:22;3.00;;;2.53;;
48667;SDS011;34453;52.198;5.004;2024-02-16T06:00:51;3.17;;;2.33;;
48667;SDS011;34453;52.198;5.004;2024-02-16T06:03:16;8.23;;;2.60;;
48667;SDS011;34453;52.198;5.004;2024-02-16T06:05:42;4.35;;;2.88;;
48667;SDS011;34453;52.198;5.004;2024-02-16T06:08:12;2.85;;;2.65;;
48667;SDS011;34453;52.198;5.004;2024-02-16T06:10:38;6.72;;;3.10;;
48667;SDS011;34453;52.198;5.004;2024-02-16T06:13:03;3.20;;;2.92;;
48667;SDS011;34453;52.198;5.004;2024-02-16T06:15:28;3.13;;;2.80;;
48667;SDS011;34453;52.198;5.004;2024-02-16T06:17:54;4.38;;;2.75;;
48667;SDS011;34453;52.198;5.004;2024-02-16T06:20:19;3.08;;;2.78;;
48667;SDS011;34453;52.198;5.004;2024-02-16T06:22:45;6.30;;;2.95;;
48667;SDS011;34453;52.198;5.004;2024-02-16T06:25:10;3.65;;;3.13;;
48667;SDS011;34453;52.198;5.004;2024-02-16T06:27:35;2.67;;;2.58;;
48667;SDS011;34453;52.198;5.004;2024-02-16T06:30:01;6.60;;;2.92;;
48667;SDS011;34453;52.198;5.004;2024-02-16T06:32:26;2.78;;;2.58;;
48667;SDS011;34453;52.198;5.004;2024-02-16T06:34:53;3.05;;;2.80;;
48667;SDS011;34453;52.198;5.004;2024-02-16T06:37:19;3.72;;;2.50;;
48667;SDS011;34453;52.198;5.004;2024-02-16T06:39:44;2.88;;;2.67;;
48667;SDS011;34453;52.198;5.004;2024-02-16T06:42:10;4.10;;;3.30;;
48667;SDS011;34453;52.198;5.004;2024-02-16T06:44:37;3.08;;;2.65;;
48667;SDS011;34453;52.198;5.004;2024-02-16T06:47:03;3.50;;;3.20;;
48667;SDS011;34453;52.198;5.004;2024-02-16T06:49:28;5.07;;;3.03;;
48667;SDS011;34453;52.198;5.004;2024-02-16T06:51:54;6.57;;;2.72;;
48667;SDS011;34453;52.198;5.004;2024-02-16T06:54:20;4.07;;;3.08;;
48667;SDS011;34453;52.198;5.004;2024-02-16T06:56:45;3.95;;;3.20;;
48667;SDS011;34453;52.198;5.004;2024-02-16T06:59:11;4.03;;;3.67;;
48667;SDS011;34453;52.198;5.004;2024-02-16T07:01:36;3.42;;;3.13;;
48667;SDS011;34453;52.198;5.004;2024-02-16T07:04:01;4.97;;;3.25;;
48667;SDS011;34453;52.198;5.004;2024-02-16T07:06:27;3.60;;;3.10;;
48667;SDS011;34453;52.198;5.004;2024-02-16T07:08:52;4.78;;;3.28;;
48667;SDS011;34453;52.198;5.004;2024-02-16T07:11:17;7.90;;;3.17;;
48667;SDS011;34453;52.198;5.004;2024-02-16T07:13:43;5.68;;;2.92;;
48667;SDS011;34453;52.198;5.004;2024-02-16T07:16:09;4.10;;;3.33;;
48667;SDS011;34453;52.198;5.004;2024-02-16T07:18:34;3.30;;;2.85;;
48667;SDS011;34453;52.198;5.004;2024-02-16T07:20:59;4.18;;;3.78;;
48667;SDS011;34453;52.198;5.004;2024-02-16T07:23:25;6.07;;;3.30;;
48667;SDS011;34453;52.198;5.004;2024-02-16T07:25:50;3.53;;;3.25;;
48667;SDS011;34453;52.198;5.004;2024-02-16T07:28:16;4.13;;;3.25;;
48667;SDS011;34453;52.198;5.004;2024-02-16T07:30:41;4.38;;;3.35;;
48667;SDS011;34453;52.198;5.004;2024-02-16T07:33:07;3.92;;;3.22;;
48667;SDS011;34453;52.198;5.004;2024-02-16T07:35:33;5.43;;;3.30;;
48667;SDS011;34453;52.198;5.004;2024-02-16T07:37:58;4.10;;;3.15;;
48667;SDS011;34453;52.198;5.004;2024-02-16T07:40:23;4.22;;;3.58;;
48667;SDS011;34453;52.198;5.004;2024-02-16T07:42:49;3.47;;;3.17;;
48667;SDS011;34453;52.198;5.004;2024-02-16T07:45:14;11.57;;;4.05;;
48667;SDS011;34453;52.198;5.004;2024-02-16T07:47:40;3.67;;;3.38;;
48667;SDS011;34453;52.198;5.004;2024-02-16T07:50:06;3.13;;;2.83;;
48667;SDS011;34453;52.198;5.004;2024-02-16T07:52:31;6.95;;;3.28;;
48667;SDS011;34453;52.198;5.004;2024-02-16T07:54:57;6.45;;;3.47;;
48667;SDS011;34453;52.198;5.004;2024-02-16T07:57:22;5.82;;;3.70;;
48667;SDS011;34453;52.198;5.004;2024-02-16T07:59:48;7.43;;;3.95;;
48667;SDS011;34453;52.198;5.004;2024-02-16T08:02:13;4.22;;;3.30;;
48667;SDS011;34453;52.198;5.004;2024-02-16T08:04:47;8.15;;;4.60;;
48667;SDS011;34453;52.198;5.004;2024-02-16T08:09:38;7.10;;;4.03;;
48667;SDS011;34453;52.198;5.004;2024-02-16T08:12:04;11.40;;;3.83;;
48667;SDS011;34453;52.198;5.004;2024-02-16T08:14:32;3.72;;;3.38;;
48667;SDS011;34453;52.198;5.004;2024-02-16T08:16:57;7.40;;;3.72;;
48667;SDS011;34453;52.198;5.004;2024-02-16T08:19:23;10.00;;;4.05;;
48667;SDS011;34453;52.198;5.004;2024-02-16T08:21:48;5.88;;;4.35;;
48667;SDS011;34453;52.198;5.004;2024-02-16T08:24:14;4.72;;;4.30;;
48667;SDS011;34453;52.198;5.004;2024-02-16T08:26:39;4.55;;;4.00;;
48667;SDS011;34453;52.198;5.004;2024-02-16T08:29:04;6.32;;;3.78;;
48667;SDS011;34453;52.198;5.004;2024-02-16T08:31:30;8.13;;;3.58;;
48667;SDS011;34453;52.198;5.004;2024-02-16T08:33:55;6.43;;;4.07;;
48667;SDS011;34453;52.198;5.004;2024-02-16T08:36:20;3.72;;;3.40;;
48667;SDS011;34453;52.198;5.004;2024-02-16T08:38:53;8.40;;;4.45;;
48667;SDS011;34453;52.198;5.004;2024-02-16T08:41:18;6.63;;;3.88;;
48667;SDS011;34453;52.198;5.004;2024-02-16T08:43:44;4.53;;;3.88;;
48667;SDS011;34453;52.198;5.004;2024-02-16T08:46:09;4.13;;;3.50;;
48667;SDS011;34453;52.198;5.004;2024-02-16T08:48:35;5.90;;;3.60;;
48667;SDS011;34453;52.198;5.004;2024-02-16T08:51:00;12.15;;;3.83;;
48667;SDS011;34453;52.198;5.004;2024-02-16T08:53:26;4.90;;;4.45;;
48667;SDS011;34453;52.198;5.004;2024-02-16T08:55:51;8.05;;;4.47;;
48667;SDS011;34453;52.198;5.004;2024-02-16T08:58:16;10.23;;;4.15;;
48667;SDS011;34453;52.198;5.004;2024-02-16T09:00:42;4.47;;;4.07;;
48667;SDS011;34453;52.198;5.004;2024-02-16T09:03:07;8.68;;;4.03;;
48667;SDS011;34453;52.198;5.004;2024-02-16T09:05:33;5.50;;;3.92;;
48667;SDS011;34453;52.198;5.004;2024-02-16T09:07:59;5.20;;;4.32;;
48667;SDS011;34453;52.198;5.004;2024-02-16T09:10:25;7.05;;;4.07;;
48667;SDS011;34453;52.198;5.004;2024-02-16T09:12:50;9.38;;;4.32;;
48667;SDS011;34453;52.198;5.004;2024-02-16T09:15:17;5.68;;;4.28;;
48667;SDS011;34453;52.198;5.004;2024-02-16T09:17:43;5.80;;;5.20;;
48667;SDS011;34453;52.198;5.004;2024-02-16T09:20:08;5.60;;;4.45;;
48667;SDS011;34453;52.198;5.004;2024-02-16T09:22:34;8.25;;;4.15;;
48667;SDS011;34453;52.198;5.004;2024-02-16T09:25:01;4.90;;;4.45;;
48667;SDS011;34453;52.198;5.004;2024-02-16T09:27:27;9.82;;;6.20;;
48667;SDS011;34453;52.198;5.004;2024-02-16T09:29:52;6.15;;;5.13;;
48667;SDS011;34453;52.198;5.004;2024-02-16T09:32:17;5.13;;;4.80;;
48667;SDS011;34453;52.198;5.004;2024-02-16T09:34:43;13.40;;;4.68;;
48667;SDS011;34453;52.198;5.004;2024-02-16T09:37:08;5.28;;;4.15;;
48667;SDS011;34453;52.198;5.004;2024-02-16T09:39:33;6.20;;;5.28;;
48667;SDS011;34453;52.198;5.004;2024-02-16T09:41:59;7.50;;;4.70;;
48667;SDS011;34453;52.198;5.004;2024-02-16T09:44:25;7.05;;;4.45;;
48667;SDS011;34453;52.198;5.004;2024-02-16T09:46:52;8.18;;;5.35;;
48667;SDS011;34453;52.198;5.004;2024-02-16T09:49:18;8.18;;;5.95;;
48667;SDS011;34453;52.198;5.004;2024-02-16T09:51:44;9.43;;;6.45;;
48667;SDS011;34453;52.198;5.004;2024-02-16T09:54:10;12.52;;;5.63;;
48667;SDS011;34453;52.198;5.004;2024-02-16T09:56:38;9.75;;;5.95;;
48667;SDS011;34453;52.198;5.004;2024-02-16T09:59:04;11.55;;;6.05;;
48667;SDS011;34453;52.198;5.004;2024-02-16T10:01:29;9.43;;;6.47;;
48667;SDS011;34453;52.198;5.004;2024-02-16T10:03:59;14.32;;;6.72;;
48667;SDS011;34453;52.198;5.004;2024-02-16T10:06:30;11.65;;;6.63;;
48667;SDS011;34453;52.198;5.004;2024-02-16T10:08:55;11.52;;;7.28;;
48667;SDS011;34453;52.198;5.004;2024-02-16T10:11:24;18.80;;;7.85;;
48667;SDS011;34453;52.198;5.004;2024-02-16T10:13:55;24.80;;;9.82;;
48667;SDS011;34453;52.198;5.004;2024-02-16T10:16:21;13.93;;;8.55;;
48667;SDS011;34453;52.198;5.004;2024-02-16T10:18:48;16.33;;;9.02;;
48667;SDS011;34453;52.198;5.004;2024-02-16T10:21:23;16.88;;;10.15;;
48667;SDS011;34453;52.198;5.004;2024-02-16T10:26:23;28.60;;;12.57;;
48667;SDS011;34453;52.198;5.004;2024-02-16T10:28:49;32.70;;;12.30;;
48667;SDS011;34453;52.198;5.004;2024-02-16T10:31:15;39.22;;;13.05;;
48667;SDS011;34453;52.198;5.004;2024-02-16T10:33:41;41.05;;;13.25;;
48667;SDS011;34453;52.198;5.004;2024-02-16T10:36:08;37.42;;;14.02;;
48667;SDS011;34453;52.198;5.004;2024-02-16T10:38:34;36.83;;;13.30;;
48667;SDS011;34453;52.198;5.004;2024-02-16T10:40:59;35.67;;;13.80;;
48667;SDS011;34453;52.198;5.004;2024-02-16T10:43:26;34.03;;;13.15;;
48667;SDS011;34453;52.198;5.004;2024-02-16T10:45:52;30.38;;;13.05;;
48667;SDS011;34453;52.198;5.004;2024-02-16T10:48:20;32.17;;;11.63;;
48667;SDS011;34453;52.198;5.004;2024-02-16T10:50:46;26.88;;;11.38;;
48667;SDS011;34453;52.198;5.004;2024-02-16T10:53:30;25.35;;;11.38;;
48667;SDS011;34453;52.198;5.004;2024-02-16T10:55:58;28.00;;;11.82;;
48667;SDS011;34453;52.198;5.004;2024-02-16T10:58:27;28.48;;;11.30;;
48667;SDS011;34453;52.198;5.004;2024-02-16T11:00:52;20.85;;;8.98;;
48667;SDS011;34453;52.198;5.004;2024-02-16T11:03:21;23.75;;;9.48;;
48667;SDS011;34453;52.198;5.004;2024-02-16T11:05:48;24.67;;;10.88;;
48667;SDS011;34453;52.198;5.004;2024-02-16T11:08:21;17.52;;;8.27;;
48667;SDS011;34453;52.198;5.004;2024-02-16T11:13:26;15.45;;;7.85;;
48667;SDS011;34453;52.198;5.004;2024-02-16T11:16:01;15.80;;;9.15;;
48667;SDS011;34453;52.198;5.004;2024-02-16T11:18:29;20.15;;;10.07;;
48667;SDS011;34453;52.198;5.004;2024-02-16T11:20:55;24.42;;;10.02;;
48667;SDS011;34453;52.198;5.004;2024-02-16T11:23:27;20.45;;;10.10;;
48667;SDS011;34453;52.198;5.004;2024-02-16T11:25:54;19.58;;;9.23;;
48667;SDS011;34453;52.198;5.004;2024-02-16T11:28:19;14.98;;;8.38;;
48667;SDS011;34453;52.198;5.004;2024-02-16T11:30:45;15.45;;;7.97;;
48667;SDS011;34453;52.198;5.004;2024-02-16T11:33:10;10.50;;;7.10;;
48667;SDS011;34453;52.198;5.004;2024-02-16T11:35:36;9.65;;;7.30;;
48667;SDS011;34453;52.198;5.004;2024-02-16T11:38:01;15.25;;;8.40;;
48667;SDS011;34453;52.198;5.004;2024-02-16T11:40:27;12.25;;;6.78;;
48667;SDS011;34453;52.198;5.004;2024-02-16T11:43:01;12.82;;;6.82;;
48667;SDS011;34453;52.198;5.004;2024-02-16T11:45:27;13.50;;;6.97;;
48667;SDS011;34453;52.198;5.004;2024-02-16T11:48:08;12.30;;;7.43;;
48667;SDS011;34453;52.198;5.004;2024-02-16T11:50:35;11.05;;;7.18;;
48667;SDS011;34453;52.198;5.004;2024-02-16T11:53:00;8.18;;;6.35;;
48667;SDS011;34453;52.198;5.004;2024-02-16T11:55:25;11.18;;;6.90;;
48667;SDS011;34453;52.198;5.004;2024-02-16T11:57:51;9.30;;;6.68;;
48667;SDS011;34453;52.198;5.004;2024-02-16T12:00:16;9.57;;;5.53;;
48667;SDS011;34453;52.198;5.004;2024-02-16T12:02:42;9.93;;;5.82;;
48667;SDS011;34453;52.198;5.004;2024-02-16T12:05:07;7.80;;;5.55;;
48667;SDS011;34453;52.198;5.004;2024-02-16T12:07:33;7.07;;;5.55;;
48667;SDS011;34453;52.198;5.004;2024-02-16T12:09:59;6.30;;;5.18;;
48667;SDS011;34453;52.198;5.004;2024-02-16T12:12:25;9.85;;;5.38;;
48667;SDS011;34453;52.198;5.004;2024-02-16T12:14:51;7.15;;;5.18;;
48667;SDS011;34453;52.198;5.004;2024-02-16T12:17:17;5.55;;;5.00;;
48667;SDS011;34453;52.198;5.004;2024-02-16T12:19:45;7.05;;;4.80;;
48667;SDS011;34453;52.198;5.004;2024-02-16T12:22:16;6.57;;;4.78;;
48667;SDS011;34453;52.198;5.004;2024-02-16T12:24:41;10.48;;;5.03;;
48667;SDS011;34453;52.198;5.004;2024-02-16T12:27:07;11.32;;;5.75;;
48667;SDS011;34453;52.198;5.004;2024-02-16T12:29:32;6.50;;;4.88;;
48667;SDS011;34453;52.198;5.004;2024-02-16T12:31:57;5.88;;;5.03;;
48667;SDS011;34453;52.198;5.004;2024-02-16T12:34:24;7.43;;;5.13;;
48667;SDS011;34453;52.198;5.004;2024-02-16T12:36:51;5.97;;;5.10;;
48667;SDS011;34453;52.198;5.004;2024-02-16T12:39:16;5.00;;;4.45;;
48667;SDS011;34453;52.198;5.004;2024-02-16T12:41:41;7.40;;;4.43;;
48667;SDS011;34453;52.198;5.004;2024-02-16T12:44:08;8.93;;;4.45;;
48667;SDS011;34453;52.198;5.004;2024-02-16T12:46:33;10.40;;;4.13;;
48667;SDS011;34453;52.198;5.004;2024-02-16T12:48:59;7.13;;;5.32;;
48667;SDS011;34453;52.198;5.004;2024-02-16T12:51:24;4.30;;;3.90;;
48667;SDS011;34453;52.198;5.004;2024-02-16T12:53:49;7.82;;;3.63;;
48667;SDS011;34453;52.198;5.004;2024-02-16T12:56:15;8.70;;;4.10;;
48667;SDS011;34453;52.198;5.004;2024-02-16T12:58:40;4.03;;;2.45;;
48667;SDS011;34453;52.198;5.004;2024-02-16T13:01:06;5.50;;;2.70;;
48667;SDS011;34453;52.198;5.004;2024-02-16T13:03:33;5.47;;;2.25;;
48667;SDS011;34453;52.198;5.004;2024-02-16T13:05:58;15.38;;;3.65;;
48667;SDS011;34453;52.198;5.004;2024-02-16T13:08:24;8.73;;;2.90;;
48667;SDS011;34453;52.198;5.004;2024-02-16T13:10:49;12.65;;;3.45;;
48667;SDS011;34453;52.198;5.004;2024-02-16T13:13:14;11.75;;;3.42;;
48667;SDS011;34453;52.198;5.004;2024-02-16T13:15:40;4.07;;;3.60;;
48667;SDS011;34453;52.198;5.004;2024-02-16T13:18:05;4.90;;;3.63;;
48667;SDS011;34453;52.198;5.004;2024-02-16T13:20:30;8.45;;;3.22;;
48667;SDS011;34453;52.198;5.004;2024-02-16T13:22:56;12.27;;;4.40;;
48667;SDS011;34453;52.198;5.004;2024-02-16T13:25:21;4.57;;;3.53;;
48667;SDS011;34453;52.198;5.004;2024-02-16T13:27:47;8.60;;;4.43;;
48667;SDS011;34453;52.198;5.004;2024-02-16T13:30:12;8.25;;;4.07;;
48667;SDS011;34453;52.198;5.004;2024-02-16T13:32:38;7.18;;;4.72;;
48667;SDS011;34453;52.198;5.004;2024-02-16T13:35:05;5.07;;;4.60;;
48667;SDS011;34453;52.198;5.004;2024-02-16T13:37:31;11.00;;;5.50;;
48667;SDS011;34453;52.198;5.004;2024-02-16T13:39:56;9.10;;;4.95;;
48667;SDS011;34453;52.198;5.004;2024-02-16T13:42:21;6.72;;;5.57;;
48667;SDS011;34453;52.198;5.004;2024-02-16T13:44:47;7.05;;;5.70;;
48667;SDS011;34453;52.198;5.004;2024-02-16T13:47:12;6.57;;;5.47;;
48667;SDS011;34453;52.198;5.004;2024-02-16T13:49:38;5.55;;;5.05;;
48667;SDS011;34453;52.198;5.004;2024-02-16T13:52:03;8.13;;;5.57;;
48667;SDS011;34453;52.198;5.004;2024-02-16T13:54:29;8.93;;;5.15;;
48667;SDS011;34453;52.198;5.004;2024-02-16T13:56:54;12.80;;;5.65;;
48667;SDS011;34453;52.198;5.004;2024-02-16T13:59:19;7.63;;;5.13;;
48667;SDS011;34453;52.198;5.004;2024-02-16T14:01:45;6.20;;;4.85;;
48667;SDS011;34453;52.198;5.004;2024-02-16T14:04:11;5.72;;;4.95;;
48667;SDS011;34453;52.198;5.004;2024-02-16T14:06:36;7.80;;;5.40;;
48667;SDS011;34453;52.198;5.004;2024-02-16T14:09:06;8.77;;;6.15;;
48667;SDS011;34453;52.198;5.004;2024-02-16T14:11:36;9.82;;;5.85;;
48667;SDS011;34453;52.198;5.004;2024-02-16T14:14:02;5.80;;;4.43;;
48667;SDS011;34453;52.198;5.004;2024-02-16T14:16:27;5.45;;;4.95;;
48667;SDS011;34453;52.198;5.004;2024-02-16T14:18:52;5.68;;;5.18;;
48667;SDS011;34453;52.198;5.004;2024-02-16T14:21:18;5.80;;;5.35;;
48667;SDS011;34453;52.198;5.004;2024-02-16T14:23:43;10.15;;;6.25;;
48667;SDS011;34453;52.198;5.004;2024-02-16T14:26:09;9.73;;;6.40;;
48667;SDS011;34453;52.198;5.004;2024-02-16T14:28:35;14.57;;;7.78;;
48667;SDS011;34453;52.198;5.004;2024-02-16T14:31:01;12.57;;;8.23;;
48667;SDS011;34453;52.198;5.004;2024-02-16T14:33:27;14.07;;;8.25;;
48667;SDS011;34453;52.198;5.004;2024-02-16T14:35:53;19.30;;;9.63;;
48667;SDS011;34453;52.198;5.004;2024-02-16T14:38:18;14.27;;;8.80;;
48667;SDS011;34453;52.198;5.004;2024-02-16T14:40:43;12.45;;;8.95;;
48667;SDS011;34453;52.198;5.004;2024-02-16T14:43:09;15.60;;;10.68;;
48667;SDS011;34453;52.198;5.004;2024-02-16T14:45:34;17.08;;;8.98;;